Time;durP1;ratioP1;P1;durP2;ratioP2;P2;SDS_P1;SDS_P2;PMS_P1;PMS_P2;Temp;Humidity;BMP_temperature;BMP_pressure;BME280_temperature;BME280_humidity;BME280_pressure;Samples;Min_cycle;Max_cycle;Signal;HPM_P1;HPM_P2
2022/02/25 00:01:01;;;;;;;17.58;8.10;;;;;;;-3.54;100.00;95355.97;5059955;28;20379;-47
2022/02/25 00:03:28;;;;;;;18.25;10.10;;;;;;;-3.63;100.00;95352.47;5059731;28;20101;-45
2022/02/25 00:05:55;;;;;;;24.40;10.55;;;;;;;-3.71;100.00;95350.59;5060545;28;20478;-46
2022/02/25 00:08:21;;;;;;;18.35;9.52;;;;;;;-3.69;100.00;95353.81;5060794;28;20074;-46
2022/02/25 00:10:48;;;;;;;21.33;9.48;;;;;;;-3.70;100.00;95352.19;5060505;28;20047;-46
2022/02/25 00:13:15;;;;;;;21.00;11.43;;;;;;;-3.71;100.00;95350.59;5060814;28;20037;-49
2022/02/25 00:15:43;;;;;;;16.70;9.55;;;;;;;-3.69;100.00;95343.63;5061033;28;20041;-49
2022/02/25 00:18:10;;;;;;;21.10;11.15;;;;;;;-3.69;100.00;95338.53;5061075;28;20109;-49
2022/02/25 00:20:37;;;;;;;19.58;9.10;;;;;;;-3.69;100.00;95347.88;5060357;28;20051;-48
2022/02/25 00:23:04;;;;;;;18.73;9.02;;;;;;;-3.79;100.00;95341.97;5060644;28;20040;-46
2022/02/25 00:25:31;;;;;;;18.83;9.45;;;;;;;-3.79;100.00;95337.69;5060679;28;20068;-51
2022/02/25 00:27:57;;;;;;;29.67;9.32;;;;;;;-3.82;100.00;95337.94;5057190;28;20114;-47
2022/02/25 00:30:24;;;;;;;20.33;10.52;;;;;;;-3.85;100.00;95338.22;5059127;28;20036;-46
2022/02/25 00:32:51;;;;;;;33.42;10.18;;;;;;;-3.87;100.00;95329.88;5062510;28;20120;-48
2022/02/25 00:35:18;;;;;;;17.45;8.77;;;;;;;-3.89;100.00;95321.56;5060878;28;20045;-48
2022/02/25 00:37:44;;;;;;;21.48;9.32;;;;;;;-3.92;100.00;95321.84;5063638;28;20041;-48
2022/02/25 00:40:12;;;;;;;16.05;9.35;;;;;;;-3.91;100.00;95320.91;5063811;28;20056;-46
2022/02/25 00:42:38;;;;;;;24.90;9.07;;;;;;;-3.96;100.00;95315.38;5063576;28;20052;-47
2022/02/25 00:45:06;;;;;;;25.48;10.95;;;;;;;-4.00;100.00;95316.59;5062451;28;20050;-47
2022/02/25 00:47:33;;;;;;;14.70;8.52;;;;;;;-4.06;100.00;95313.63;5063706;28;20060;-47
2022/02/25 00:50:00;;;;;;;16.67;9.45;;;;;;;-4.15;100.00;95311.84;5062428;28;20033;-47
2022/02/25 00:52:28;;;;;;;16.60;9.30;;;;;;;-4.15;100.00;95301.69;5063577;28;20058;-48
2022/02/25 00:54:54;;;;;;;19.63;9.57;;;;;;;-4.20;100.00;95293.63;5063098;28;20067;-51
2022/02/25 00:57:21;;;;;;;23.75;10.10;;;;;;;-4.17;100.00;95300.22;5046110;28;20059;-48
2022/02/25 00:59:48;;;;;;;18.88;9.73;;;;;;;-4.17;100.00;95303.53;5062534;28;20056;-50
2022/02/25 01:02:15;;;;;;;29.38;11.82;;;;;;;-4.17;100.00;95298.47;5062881;28;20051;-47
2022/02/25 01:04:44;;;;;;;18.90;9.30;;;;;;;-4.16;100.00;95305.16;5062194;28;20041;-46
2022/02/25 01:07:11;;;;;;;21.70;10.73;;;;;;;-4.27;100.00;95297.59;5062027;28;20040;-46
2022/02/25 01:09:37;;;;;;;20.42;9.45;;;;;;;-4.42;100.00;95295.41;5060897;28;20044;-47
2022/02/25 01:12:06;;;;;;;17.90;8.63;;;;;;;-4.46;100.00;95294.06;5062049;28;20110;-45
2022/02/25 01:14:32;;;;;;;16.63;8.38;;;;;;;-4.53;100.00;95298.03;5063389;28;20048;-49
2022/02/25 01:16:59;;;;;;;16.90;7.80;;;;;;;-4.69;100.00;95279.91;5063197;28;20036;-49
2022/02/25 01:19:26;;;;;;;18.52;8.65;;;;;;;-4.80;100.00;95266.31;5063165;28;20049;-46
2022/02/25 01:21:53;;;;;;;17.10;9.18;;;;;;;-4.77;100.00;95284.78;5062067;28;20056;-46
2022/02/25 01:24:20;;;;;;;20.30;9.23;;;;;;;-4.86;100.00;95287.16;5063240;28;20048;-46
2022/02/25 01:26:47;;;;;;;17.63;9.00;;;;;;;-4.92;100.00;95284.31;5062471;28;20733;-47
2022/02/25 01:29:14;;;;;;;21.98;8.23;;;;;;;-4.91;100.00;95279.09;5057384;28;20041;-46
2022/02/25 01:31:43;;;;;;;29.60;9.30;;;;;;;-4.88;100.00;95278.88;5062342;28;20131;-47
2022/02/25 01:34:10;;;;;;;9.35;6.68;;;;;;;-4.83;100.00;95275.94;5060684;28;20057;-47
2022/02/25 01:36:37;;;;;;;19.75;9.52;;;;;;;-4.83;100.00;95271.66;5062144;28;20113;-49
2022/02/25 01:39:04;;;;;;;18.67;9.75;;;;;;;-4.91;100.00;95266.41;5061672;28;20119;-46
2022/02/25 01:41:32;;;;;;;18.88;9.00;;;;;;;-4.87;100.00;95270.28;5061436;28;20048;-47
2022/02/25 01:44:20;;;;;;;15.82;7.82;;;;;;;-4.84;100.00;95269.25;5060442;28;20561;-47
2022/02/25 01:46:59;;;;;;;13.85;6.32;;;;;;;-4.84;100.00;95264.97;5058832;28;20052;-47
2022/02/25 01:49:27;;;;;;;16.08;8.23;;;;;;;-4.85;100.00;95258.28;5062547;28;20469;-50
2022/02/25 01:52:00;;;;;;;11.75;5.30;;;;;;;-4.85;100.00;95258.28;5062506;28;20057;-45
2022/02/25 01:54:28;;;;;;;8.98;5.15;;;;;;;-4.82;100.00;95258.03;5061796;28;20698;-47
2022/02/25 01:56:57;;;;;;;16.20;6.72;;;;;;;-4.80;100.00;95260.44;5048410;28;20064;-49
2022/02/25 01:59:29;;;;;;;13.27;7.28;;;;;;;-4.86;100.00;95260.94;5060178;28;20048;-52
2022/02/25 02:01:57;;;;;;;20.73;5.95;;;;;;;-4.83;100.00;95264.03;5060958;28;20032;-46
2022/02/25 02:04:26;;;;;;;10.57;6.05;;;;;;;-4.87;100.00;95257.59;5061611;28;20113;-45
2022/02/25 02:06:53;;;;;;;10.38;5.63;;;;;;;-4.87;100.00;95249.97;5062052;28;20044;-51
2022/02/25 02:09:19;;;;;;;18.15;5.30;;;;;;;-4.89;100.00;95249.28;5062319;28;20101;-46
2022/02/25 02:11:49;;;;;;;9.93;5.03;;;;;;;-4.90;100.00;95245.13;5062274;28;20054;-48
2022/02/25 02:14:18;;;;;;;12.15;5.45;;;;;;;-4.90;100.00;95245.13;5061942;28;20051;-48
2022/02/25 02:16:46;;;;;;;13.70;5.57;;;;;;;-5.00;100.00;95254.44;5060217;28;20048;-48
2022/02/25 02:19:14;;;;;;;10.85;5.78;;;;;;;-5.06;100.00;95240.53;5061901;28;20044;-49
2022/02/25 02:21:43;;;;;;;6.85;4.43;;;;;;;-5.10;100.00;95233.25;5061596;28;20094;-48
2022/02/25 02:24:11;;;;;;;10.18;5.75;;;;;;;-5.11;100.00;95236.72;5061076;28;20040;-49
2022/02/25 02:26:38;;;;;;;9.27;4.07;;;;;;;-5.18;100.00;95242.31;5061738;28;20082;-46
2022/02/25 02:29:06;;;;;;;6.82;4.28;;;;;;;-5.21;100.00;95232.38;5055131;28;20502;-45
2022/02/25 02:31:34;;;;;;;7.57;4.47;;;;;;;-5.36;100.00;95232.84;5059390;28;20196;-47
2022/02/25 02:34:01;;;;;;;7.82;4.05;;;;;;;-5.41;100.00;95225.56;5060375;28;20055;-50
2022/02/25 02:36:28;;;;;;;8.13;4.00;;;;;;;-5.49;100.00;95232.97;5060132;28;20055;-47
2022/02/25 02:38:56;;;;;;;7.80;4.45;;;;;;;-5.44;100.00;95229.19;5060731;28;20062;-49
2022/02/25 02:41:23;;;;;;;6.30;3.72;;;;;;;-5.40;100.00;95232.28;5060968;28;20044;-47
2022/02/25 02:43:49;;;;;;;9.50;3.50;;;;;;;-5.36;100.00;95223.47;5059146;28;20545;-49
2022/02/25 02:46:16;;;;;;;6.78;4.07;;;;;;;-5.45;100.00;95221.69;5059165;28;20053;-49
2022/02/25 02:48:43;;;;;;;8.38;3.67;;;;;;;-5.43;100.00;95227.44;5060820;28;20509;-46
2022/02/25 02:51:10;;;;;;;4.97;2.50;;;;;;;-5.39;100.00;95228.78;5060069;28;20098;-45
2022/02/25 02:53:37;;;;;;;10.23;3.67;;;;;;;-5.36;100.00;95233.63;5060185;28;20062;-46
2022/02/25 02:56:05;;;;;;;21.02;7.88;;;;;;;-5.33;100.00;95232.56;5061472;28;20052;-46
2022/02/25 02:58:32;;;;;;;14.05;4.65;;;;;;;-5.46;100.00;95232.75;5059936;28;20502;-49
2022/02/25 03:00:59;;;;;;;16.85;4.05;;;;;;;-5.57;100.00;95226.78;5061669;28;20068;-46
2022/02/25 03:03:26;;;;;;;8.98;4.35;;;;;;;-5.74;100.00;95219.72;5059096;28;20402;-45
2022/02/25 03:05:53;;;;;;;11.38;4.75;;;;;;;-5.84;100.00;95222.16;5059976;28;20552;-45
2022/02/25 03:08:20;;;;;;;9.55;4.75;;;;;;;-5.91;100.00;95213.41;5060951;28;20567;-47
2022/02/25 03:10:47;;;;;;;8.02;3.85;;;;;;;-6.00;100.00;95209.09;5061150;28;20071;-47
2022/02/25 03:13:14;;;;;;;20.10;4.80;;;;;;;-5.90;100.00;95224.41;5059295;28;20463;-51
2022/02/25 03:15:42;;;;;;;8.88;5.68;;;;;;;-5.94;100.00;95221.28;5061008;28;20118;-48
2022/02/25 03:18:10;;;;;;;7.22;4.13;;;;;;;-5.96;100.00;95216.38;5060963;28;20465;-45
2022/02/25 03:20:37;;;;;;;8.85;4.88;;;;;;;-5.93;100.00;95214.47;5060801;28;20486;-50
2022/02/25 03:23:04;;;;;;;10.25;5.18;;;;;;;-5.85;100.00;95212.13;5060769;28;20052;-48
2022/02/25 03:25:31;;;;;;;13.32;6.10;;;;;;;-5.80;100.00;95215.13;5060534;28;20063;-46
2022/02/25 03:27:58;;;;;;;5.28;3.00;;;;;;;-5.80;100.00;95220.19;5060022;28;20074;-45
2022/02/25 03:30:25;;;;;;;5.47;3.60;;;;;;;-5.76;100.00;95221.59;5055560;28;20040;-48
2022/02/25 03:32:52;;;;;;;13.23;4.95;;;;;;;-5.79;100.00;95214.22;5059317;28;20044;-48
2022/02/25 03:35:19;;;;;;;10.95;5.38;;;;;;;-5.74;100.00;95224.81;5060901;28;20075;-46
2022/02/25 03:37:46;;;;;;;8.70;3.92;;;;;;;-5.66;100.00;95227.53;5058553;28;20044;-48
2022/02/25 03:40:16;;;;;;;8.50;3.60;;;;;;;-5.64;100.00;95225.66;5057176;28;20516;-46
2022/02/25 03:42:44;;;;;;;7.00;3.72;;;;;;;-5.66;100.00;95222.44;5059649;28;20029;-48
2022/02/25 03:45:12;;;;;;;8.02;4.70;;;;;;;-5.62;100.00;95228.91;5059434;28;20106;-49
2022/02/25 03:47:40;;;;;;;4.55;3.53;;;;;;;-5.63;100.00;95239.97;5061132;28;20044;-48
2022/02/25 03:50:08;;;;;;;7.55;3.58;;;;;;;-5.65;100.00;95233.44;5060132;28;20453;-48
2022/02/25 03:52:35;;;;;;;20.17;6.00;;;;;;;-5.76;100.00;95236.81;5058506;28;20032;-46
2022/02/25 03:55:03;;;;;;;6.05;4.22;;;;;;;-5.74;100.00;95240.03;5060792;28;20142;-50
2022/02/25 03:57:30;;;;;;;4.60;2.78;;;;;;;-5.75;100.00;95238.41;5060428;28;20052;-47
2022/02/25 03:59:57;;;;;;;4.88;3.03;;;;;;;-5.83;100.00;95245.81;5060514;28;20052;-49
2022/02/25 04:02:25;;;;;;;5.40;2.72;;;;;;;-5.89;100.00;95246.28;5060120;28;20123;-48
2022/02/25 04:04:52;;;;;;;12.50;4.82;;;;;;;-5.87;100.00;95234.28;5060040;28;20127;-47
2022/02/25 04:07:19;;;;;;;10.95;4.15;;;;;;;-5.88;100.00;95237.75;5061852;28;20045;-47
2022/02/25 04:09:45;;;;;;;6.07;3.85;;;;;;;-5.89;100.00;95236.13;5063455;28;20052;-47
2022/02/25 04:12:12;;;;;;;5.97;3.15;;;;;;;-5.89;100.00;95246.28;5063268;28;20045;-47
2022/02/25 04:14:39;;;;;;;4.68;2.83;;;;;;;-5.93;100.00;95244.91;5062979;28;20048;-46
2022/02/25 04:17:06;;;;;;;6.25;3.47;;;;;;;-5.90;100.00;95257.38;5079975;28;20045;-48
2022/02/25 04:19:33;;;;;;;11.05;4.38;;;;;;;-5.92;100.00;95254.13;5064417;28;20045;-45
2022/02/25 04:21:59;;;;;;;7.75;3.72;;;;;;;-5.86;100.00;95256.19;5062868;28;20044;-49
2022/02/25 04:24:28;;;;;;;6.13;3.67;;;;;;;-5.86;100.00;95253.66;5063930;28;20076;-46
2022/02/25 04:26:55;;;;;;;8.25;2.80;;;;;;;-5.84;100.00;95259.41;5064295;28;20079;-54
2022/02/25 04:29:23;;;;;;;15.50;5.18;;;;;;;-5.86;100.00;95246.84;5060901;28;20480;-49
2022/02/25 04:31:50;;;;;;;10.23;5.85;;;;;;;-5.83;100.00;95258.50;5063438;28;20052;-48
2022/02/25 04:34:17;;;;;;;9.18;5.00;;;;;;;-5.88;100.00;95258.06;5061565;28;20045;-50
2022/02/25 04:36:45;;;;;;;7.28;3.53;;;;;;;-6.00;100.00;95255.56;5062996;28;20044;-46
2022/02/25 04:39:12;;;;;;;6.03;3.15;;;;;;;-6.05;100.00;95242.44;5062456;28;20051;-47
2022/02/25 04:41:38;;;;;;;8.60;5.30;;;;;;;-6.04;100.00;95244.03;5063737;28;20437;-48
2022/02/25 04:44:05;;;;;;;10.40;4.30;;;;;;;-5.95;100.00;95248.38;5063318;28;20032;-46
2022/02/25 04:46:33;;;;;;;6.00;3.35;;;;;;;-5.91;100.00;95243.06;5061413;28;20040;-46
2022/02/25 04:49:00;;;;;;;8.20;4.32;;;;;;;-5.92;100.00;95241.44;5062524;28;20145;-48
2022/02/25 04:51:26;;;;;;;15.77;4.93;;;;;;;-5.90;100.00;95244.69;5062717;28;20037;-45
2022/02/25 04:53:53;;;;;;;9.43;5.28;;;;;;;-5.93;100.00;95239.84;5061434;28;20040;-45
2022/02/25 04:56:20;;;;;;;11.52;6.47;;;;;;;-6.00;100.00;95235.25;5062755;28;20083;-47
2022/02/25 04:58:47;;;;;;;10.40;6.40;;;;;;;-6.05;100.00;95234.84;5062951;28;20058;-46
2022/02/25 05:01:14;;;;;;;7.22;4.95;;;;;;;-6.17;100.00;95218.03;5058088;28;20102;-49
2022/02/25 05:03:41;;;;;;;6.82;4.53;;;;;;;-6.05;100.00;95227.22;5061420;28;20426;-48
2022/02/25 05:06:09;;;;;;;12.35;6.80;;;;;;;-6.02;100.00;95232.03;5056483;28;20064;-50
2022/02/25 05:08:35;;;;;;;16.63;8.80;;;;;;;-6.03;100.00;95235.53;5059642;28;20102;-47
2022/02/25 05:11:02;;;;;;;13.65;9.77;;;;;;;-5.93;100.00;95224.63;5058040;28;20033;-47
2022/02/25 05:13:29;;;;;;;17.60;9.43;;;;;;;-5.97;100.00;95229.97;5062621;28;20056;-47
2022/02/25 05:21:29;;;;;;;29.75;13.23;;;;;;;-5.89;100.00;95218.38;5063297;28;20538;-47
2022/02/25 05:23:56;;;;;;;22.67;9.48;;;;;;;-5.83;100.00;95226.31;5062743;28;20048;-46
2022/02/25 05:26:23;;;;;;;21.58;9.30;;;;;;;-5.77;100.00;95225.03;5063062;28;20544;-48
2022/02/25 05:28:49;;;;;;;36.33;15.07;;;;;;;-5.70;100.00;95226.16;5061837;28;20041;-47
2022/02/25 05:31:16;;;;;;;26.38;13.00;;;;;;;-5.64;100.00;95224.88;5059508;28;20388;-47
2022/02/25 05:33:44;;;;;;;24.88;11.60;;;;;;;-5.57;100.00;95231.88;5062200;28;20055;-47
2022/02/25 05:36:11;;;;;;;33.10;16.63;;;;;;;-5.49;100.00;95227.91;5061217;28;20048;-46
2022/02/25 05:38:38;;;;;;;28.30;15.98;;;;;;;-5.39;100.00;95233.88;5060479;28;20045;-50
2022/02/25 05:41:04;;;;;;;24.67;15.57;;;;;;;-5.34;100.00;95236.84;5061907;28;20101;-47
2022/02/25 05:43:31;;;;;;;31.75;15.48;;;;;;;-5.21;100.00;95241.75;5061599;28;20044;-47
2022/02/25 05:45:58;;;;;;;35.10;15.20;;;;;;;-5.08;100.00;95241.56;5061816;28;20436;-48
2022/02/25 05:48:25;;;;;;;24.85;13.75;;;;;;;-5.09;100.00;95229.81;5060135;28;20133;-48
2022/02/25 05:50:52;;;;;;;23.58;13.00;;;;;;;-4.90;100.00;95240.03;5060080;28;20590;-47
2022/02/25 05:53:19;;;;;;;28.15;11.70;;;;;;;-4.89;100.00;95226.44;5061849;28;20044;-46
2022/02/25 05:55:45;;;;;;;52.22;19.50;;;;;;;-4.69;100.00;95240.03;5060724;28;20051;-49
2022/02/25 05:58:12;;;;;;;47.67;16.67;;;;;;;-4.51;100.00;95245.31;5057257;28;20509;-46
2022/02/25 06:00:39;;;;;;;60.22;25.05;;;;;;;-4.34;100.00;95245.66;5057020;28;20040;-46
2022/02/25 06:03:07;;;;;;;42.42;18.58;;;;;;;-4.22;100.00;95244.63;5062303;28;20044;-46
2022/02/25 06:05:34;;;;;;;28.05;11.57;;;;;;;-4.06;100.00;95249.22;5061316;28;20049;-47
2022/02/25 06:08:01;;;;;;;36.72;15.55;;;;;;;-3.84;100.00;95253.28;5061834;28;20457;-47
2022/02/25 06:10:30;;;;;;;31.13;15.07;;;;;;;-3.71;100.00;95265.75;5060366;28;20152;-48
2022/02/25 06:13:00;;;;;;;41.85;18.98;;;;;;;-3.68;100.00;95243.38;5061619;28;20032;-48
2022/02/25 06:15:27;;;;;;;63.10;19.17;;;;;;;-3.40;100.00;95261.38;5059820;28;20045;-50
2022/02/25 06:17:54;;;;;;;46.30;17.45;;;;;;;-3.25;100.00;95250.78;5055457;28;20097;-47
2022/02/25 06:20:22;;;;;;;48.20;16.90;;;;;;;-3.21;100.00;95249.53;5052519;28;20434;-47
2022/02/25 06:22:49;;;;;;;46.20;19.00;;;;;;;-3.06;100.00;95248.19;5048975;28;20074;-47
2022/02/25 06:25:16;;;;;;;54.33;19.67;;;;;;;-2.91;100.00;95249.38;5048156;28;20056;-46
2022/02/25 06:27:44;;;;;;;36.60;14.80;;;;;;;-2.78;100.00;95238.06;5051703;28;20106;-50
2022/02/25 06:30:13;;;;;;;22.73;11.80;;;;;;;-2.64;100.00;95247.03;5046923;28;20541;-46
2022/02/25 06:32:40;;;;;;;35.58;13.25;;;;;;;-2.56;100.00;95245.38;5049200;28;20044;-46
2022/02/25 06:35:08;;;;;;;26.55;12.25;;;;;;;-2.51;100.00;95238.09;5045932;28;20056;-45
2022/02/25 06:37:35;;;;;;;25.10;12.85;;;;;;;-2.40;100.00;95244.00;5044564;28;20057;-47
2022/02/25 06:40:05;;;;;;;27.88;12.13;;;;;;;-2.37;100.00;95238.63;5046095;28;20037;-45
2022/02/25 06:42:32;;;;;;;37.33;15.55;;;;;;;-2.16;100.00;95246.84;5052000;28;20053;-46
2022/02/25 06:44:59;;;;;;;38.92;15.25;;;;;;;-1.98;100.00;95246.06;5048885;28;20048;-47
2022/02/25 06:47:26;;;;;;;25.40;12.85;;;;;;;-1.85;100.00;95233.78;5061012;28;20513;-48
2022/02/25 06:49:53;;;;;;;45.65;22.05;;;;;;;-1.69;100.00;95232.31;5060656;28;20045;-46
2022/02/25 06:52:20;;;;;;;30.98;13.27;;;;;;;-1.58;100.00;95229.56;5060384;28;20071;-46
2022/02/25 06:54:47;;;;;;;39.30;17.25;;;;;;;-1.46;100.00;95233.50;5060633;28;20082;-49
2022/02/25 06:57:14;;;;;;;30.08;16.48;;;;;;;-1.32;100.00;95236.47;5045596;28;20056;-47
2022/02/25 06:59:41;;;;;;;25.65;13.10;;;;;;;-1.28;100.00;95230.13;5059811;28;20044;-48
2022/02/25 07:02:08;;;;;;;26.38;13.63;;;;;;;-1.25;100.00;95214.50;5058093;28;20486;-48
2022/02/25 07:04:35;;;;;;;14.27;8.57;;;;;;;-1.06;100.00;95234.78;5057280;28;20125;-45
2022/02/25 07:07:02;;;;;;;12.75;6.68;;;;;;;-1.00;100.00;95239.28;5060029;28;20098;-46
2022/02/25 07:09:28;;;;;;;12.15;7.15;;;;;;;-1.03;100.00;95239.56;5060534;28;20045;-46
2022/02/25 07:11:55;;;;;;;17.48;7.97;;;;;;;-1.02;100.00;95235.28;5060013;28;20495;-47
2022/02/25 07:14:22;;;;;;;15.88;8.70;;;;;;;-0.89;100.00;95240.78;5058143;28;20477;-46
2022/02/25 07:16:49;;;;;;;16.73;9.63;;;;;;;-0.72;100.00;95241.72;5058626;28;20628;-46
2022/02/25 07:19:16;;;;;;;18.52;9.48;;;;;;;-0.67;100.00;95243.81;5058335;28;20399;-47
2022/02/25 07:21:42;;;;;;;15.55;9.07;;;;;;;-0.81;100.00;95243.41;5059026;28;20514;-46
2022/02/25 07:24:10;;;;;;;39.75;18.60;;;;;;;-0.73;100.00;95244.41;5059544;28;20520;-46
2022/02/25 07:26:37;;;;;;;21.40;10.35;;;;;;;-0.65;100.00;95250.41;5059066;28;20540;-50
2022/02/25 07:29:05;;;;;;;27.38;13.95;;;;;;;-0.52;99.00;95246.59;5058726;28;20106;-49
2022/02/25 07:31:32;;;;;;;19.80;9.52;;;;;;;-0.41;96.23;95254.03;5055357;28;20405;-49
2022/02/25 07:34:03;;;;;;;13.18;7.15;;;;;;;-0.37;94.78;95260.44;5061265;28;20045;-46
2022/02/25 07:36:31;;;;;;;15.50;7.80;;;;;;;-0.39;93.73;95267.47;5059641;28;20554;-47
2022/02/25 08:12:14;;;;;;;18.63;8.70;;;;;;;-0.21;97.06;95234.91;5110944;27;20501;-48
2022/02/25 08:14:41;;;;;;;14.30;8.00;;;;;;;0.02;94.77;95234.38;5119654;27;20039;-51
2022/02/25 08:17:08;;;;;;;25.35;13.38;;;;;;;0.21;93.90;95232.50;5118136;27;20101;-49
2022/02/25 08:19:35;;;;;;;19.90;10.73;;;;;;;0.45;92.55;95224.88;5113355;27;20477;-47
2022/02/25 08:22:02;;;;;;;32.25;12.77;;;;;;;0.60;90.49;95225.03;5121390;27;20039;-48
2022/02/25 08:24:32;;;;;;;14.90;8.35;;;;;;;0.61;89.66;95210.44;5102947;27;20097;-47
2022/02/25 08:26:59;;;;;;;22.90;12.52;;;;;;;0.90;89.23;95228.72;5118353;27;20032;-48
2022/02/25 08:29:26;;;;;;;28.27;13.32;;;;;;;1.13;88.03;95228.06;5119664;27;20051;-50
2022/02/25 08:31:52;;;;;;;16.20;10.55;;;;;;;1.25;86.71;95231.91;5124205;27;20040;-46
2022/02/25 08:34:19;;;;;;;22.35;12.63;;;;;;;1.37;87.25;95226.41;5120044;27;20520;-46
2022/02/25 08:36:47;;;;;;;20.80;10.52;;;;;;;1.27;86.05;95224.84;5127925;27;20054;-51
2022/02/25 08:39:14;;;;;;;20.27;10.93;;;;;;;1.44;86.61;95220.47;5123925;27;22195;-47
2022/02/25 08:41:41;;;;;;;28.50;13.52;;;;;;;1.75;86.46;95226.63;5100335;27;20039;-47
2022/02/25 08:44:08;;;;;;;22.27;12.88;;;;;;;1.97;86.56;95220.78;5118183;27;20118;-50
2022/02/25 08:46:37;;;;;;;24.52;13.23;;;;;;;2.26;85.18;95219.34;5126798;27;20040;-48
2022/02/25 08:49:05;;;;;;;24.42;12.20;;;;;;;2.37;83.67;95211.22;5100604;27;20051;-46
2022/02/25 08:51:32;;;;;;;19.40;12.88;;;;;;;2.26;82.39;95219.34;5124274;27;20062;-47
2022/02/25 08:54:00;;;;;;;18.65;11.32;;;;;;;2.48;81.14;95218.56;5118976;27;20039;-46
2022/02/25 08:56:27;;;;;;;18.85;10.85;;;;;;;2.47;80.66;95203.31;5120872;27;20122;-47
2022/02/25 08:58:54;;;;;;;25.77;12.20;;;;;;;2.76;80.83;95210.34;5119685;27;20047;-47
2022/02/25 09:01:23;;;;;;;10.30;6.35;;;;;;;2.70;80.62;95190.44;5122790;27;20050;-48
2022/02/25 09:03:50;;;;;;;23.52;12.43;;;;;;;2.82;81.51;95195.97;5122746;27;20063;-51
2022/02/25 09:06:17;;;;;;;42.30;15.90;;;;;;;3.06;81.19;95195.78;5110877;27;20043;-47
2022/02/25 09:08:44;;;;;;;26.15;12.07;;;;;;;3.38;82.67;95193.84;5124608;27;20573;-46
2022/02/25 09:11:11;;;;;;;22.83;12.02;;;;;;;3.75;80.04;95193.94;5117970;27;20496;-51
2022/02/25 09:13:39;;;;;;;26.58;11.75;;;;;;;3.94;77.90;95188.22;5124639;27;20042;-50
2022/02/25 09:16:08;;;;;;;26.92;12.48;;;;;;;4.15;76.85;95184.09;5124624;27;20047;-51
2022/02/25 09:18:35;;;;;;;20.42;10.35;;;;;;;4.47;75.45;95179.47;5119877;27;20043;-50
2022/02/25 09:21:02;;;;;;;16.27;8.48;;;;;;;4.69;73.04;95181.03;5107039;27;20696;-49
2022/02/25 09:23:31;;;;;;;15.73;8.10;;;;;;;4.92;72.22;95182.63;5105801;27;20052;-47
2022/02/25 09:25:58;;;;;;;15.93;7.47;;;;;;;5.16;74.25;95171.88;5106292;28;20066;-47
2022/02/25 09:28:25;;;;;;;19.45;10.60;;;;;;;5.29;71.29;95171.16;5113039;27;20043;-47
2022/02/25 09:30:53;;;;;;;19.42;8.90;;;;;;;5.49;71.65;95165.31;5106763;27;20050;-48
2022/02/25 09:33:20;;;;;;;12.48;7.70;;;;;;;5.70;68.59;95169.59;5106251;28;20450;-47
2022/02/25 09:35:47;;;;;;;20.20;7.88;;;;;;;5.81;65.04;95161.28;5104490;28;20054;-46
2022/02/25 09:38:14;;;;;;;12.43;7.03;;;;;;;5.66;66.06;95158.06;5103435;28;20043;-50
2022/02/25 09:40:41;;;;;;;21.85;8.55;;;;;;;5.68;67.16;95148.31;5105044;27;20031;-47
2022/02/25 09:43:08;;;;;;;14.18;7.13;;;;;;;5.87;66.23;95136.44;5105745;28;20047;-46
2022/02/25 09:45:36;;;;;;;13.98;6.88;;;;;;;5.99;65.56;95144.50;5106443;27;20040;-46
2022/02/25 09:48:07;;;;;;;17.80;8.40;;;;;;;5.68;62.38;95133.59;5105532;28;20516;-48
2022/02/25 09:50:33;;;;;;;10.00;5.32;;;;;;;5.75;62.92;95128.47;5111107;27;20050;-52
2022/02/25 09:53:00;;;;;;;12.23;6.25;;;;;;;5.80;62.31;95126.13;5105831;28;20043;-52
2022/02/25 09:55:33;;;;;;;13.23;5.68;;;;;;;5.97;63.33;95116.25;5103800;27;20054;-49
2022/02/25 09:58:05;;;;;;;10.25;6.35;;;;;;;6.36;63.28;95124.28;5108984;27;20049;-47
2022/02/25 10:00:38;;;;;;;9.80;6.05;;;;;;;6.40;61.78;95121.09;5106363;28;20048;-48
2022/02/25 10:03:29;;;;;;;10.68;5.72;;;;;;;6.68;61.88;95113.16;5105444;27;20075;-46
2022/02/25 10:06:04;;;;;;;10.70;4.85;;;;;;;7.20;63.22;95120.28;5109008;27;20485;-46
2022/02/25 10:08:31;;;;;;;12.35;7.00;;;;;;;7.37;59.89;95120.66;5104811;27;20493;-50
2022/02/25 10:10:59;;;;;;;9.35;4.60;;;;;;;7.57;59.16;95112.81;5103531;28;20042;-48
2022/02/25 10:13:28;;;;;;;10.13;5.57;;;;;;;7.72;54.87;95113.34;5104444;27;20059;-50
2022/02/25 10:16:14;;;;;;;6.45;3.70;;;;;;;7.93;53.28;95114.84;5106903;27;20504;-47
2022/02/25 10:18:43;;;;;;;10.18;5.03;;;;;;;8.12;53.43;95102.81;5106091;27;20047;-47
2022/02/25 10:21:13;;;;;;;13.77;5.03;;;;;;;8.15;51.54;95106.78;5102575;28;20040;-53
2022/02/25 10:23:45;;;;;;;11.32;4.72;;;;;;;8.27;50.03;95104.31;5103357;28;20047;-51
2022/02/25 10:26:13;;;;;;;6.95;3.95;;;;;;;8.08;48.67;95104.19;5103473;28;20405;-51
2022/02/25 10:28:44;;;;;;;6.57;3.90;;;;;;;8.02;49.20;95098.06;5102485;28;20039;-51
2022/02/25 10:31:32;;;;;;;7.43;3.17;;;;;;;8.16;49.93;95093.59;5102286;28;20035;-49
2022/02/25 10:34:05;;;;;;;5.45;2.88;;;;;;;8.40;48.28;95099.03;5102245;28;20052;-47
2022/02/25 10:36:44;;;;;;;10.80;3.97;;;;;;;8.64;50.28;95087.09;5104829;27;20040;-50
2022/02/25 10:39:15;;;;;;;6.00;3.25;;;;;;;9.05;49.35;95084.94;5107798;27;20051;-47
2022/02/25 10:41:57;;;;;;;7.00;3.67;;;;;;;9.37;47.23;95077.81;5104447;27;20035;-48
2022/02/25 10:44:49;;;;;;;9.25;4.60;;;;;;;9.07;45.45;95077.72;5096412;28;20652;-51
2022/02/25 10:47:16;;;;;;;4.82;3.25;;;;;;;9.37;41.81;95073.41;5103235;27;20043;-47
2022/02/25 10:49:44;;;;;;;5.95;2.53;;;;;;;9.60;41.76;95071.97;5103034;28;20054;-47
2022/02/25 10:52:37;;;;;;;8.77;3.35;;;;;;;9.80;40.04;95082.13;5103436;28;20048;-47
2022/02/25 10:55:18;;;;;;;8.03;2.90;;;;;;;9.67;40.89;95072.69;5107478;27;20406;-51
2022/02/25 10:57:46;;;;;;;5.60;3.35;;;;;;;9.53;39.82;95063.47;5108256;27;20039;-51
2022/02/25 11:00:16;;;;;;;8.95;3.30;;;;;;;9.43;40.04;95065.75;5102840;28;20577;-50
2022/02/25 11:02:50;;;;;;;6.60;2.70;;;;;;;9.84;40.29;95056.47;5101989;28;20144;-48
2022/02/25 11:05:19;;;;;;;5.57;3.25;;;;;;;10.20;39.70;95055.56;5105101;27;20048;-47
2022/02/25 11:07:52;;;;;;;14.40;5.82;;;;;;;10.43;38.74;95048.88;5101425;28;20117;-48
2022/02/25 11:10:21;;;;;;;9.68;5.03;;;;;;;10.25;35.56;95053.09;5103797;27;20062;-46
2022/02/25 11:12:49;;;;;;;3.03;1.70;;;;;;;10.37;31.72;95045.34;5102639;28;20489;-46
2022/02/25 11:15:19;;;;;;;6.80;1.75;;;;;;;10.36;32.67;95035.16;5103733;28;20047;-48
2022/02/25 11:17:47;;;;;;;2.67;1.42;;;;;;;10.11;31.67;95041.28;5104190;28;20444;-47
2022/02/25 11:20:20;;;;;;;4.57;2.15;;;;;;;10.08;31.72;95032.13;5105015;28;20585;-46
2022/02/25 11:22:52;;;;;;;1.95;1.10;;;;;;;10.05;28.98;95024.75;5109626;27;20039;-51
2022/02/25 11:25:19;;;;;;;1.70;1.00;;;;;;;10.51;29.46;95025.91;5125948;27;20039;-50
2022/02/25 11:27:46;;;;;;;3.72;1.17;;;;;;;10.40;27.95;95013.63;5123324;27;20046;-49
2022/02/25 11:30:20;;;;;;;9.57;4.47;;;;;;;10.41;29.82;95010.03;5115148;27;20058;-51
2022/02/25 11:33:08;;;;;;;2.83;1.90;;;;;;;10.99;29.52;95012.88;5124737;27;20054;-47
2022/02/25 11:35:47;;;;;;;4.53;1.55;;;;;;;11.09;29.25;95005.22;5105253;27;20079;-47
2022/02/25 11:38:14;;;;;;;2.03;1.40;;;;;;;11.25;30.41;95001.94;5105075;28;20040;-47
2022/02/25 11:40:54;;;;;;;4.90;2.13;;;;;;;11.02;31.16;95004.56;5104861;28;20130;-48
2022/02/25 11:43:44;;;;;;;6.88;2.70;;;;;;;11.31;30.68;94999.41;5106527;28;20040;-48
2022/02/25 11:46:29;;;;;;;4.18;1.75;;;;;;;11.73;30.55;94993.97;5121676;27;20054;-49
2022/02/25 11:49:08;;;;;;;4.05;1.85;;;;;;;12.36;30.65;94987.72;5104828;28;20043;-47
2022/02/25 11:51:37;;;;;;;4.15;1.73;;;;;;;12.90;29.59;94981.19;5103892;28;20416;-46
2022/02/25 11:54:26;;;;;;;1.80;1.13;;;;;;;12.73;27.58;94976.78;5123997;27;20055;-47
2022/02/25 11:57:05;;;;;;;5.32;2.10;;;;;;;12.04;28.14;94980.41;5099077;27;20050;-48
2022/02/25 11:59:31;;;;;;;4.25;1.75;;;;;;;11.92;27.44;94982.31;5125399;27;20035;-47
2022/02/25 12:02:16;;;;;;;5.55;1.95;;;;;;;12.09;28.04;94982.34;5125056;27;20394;-46
2022/02/25 12:04:45;;;;;;;4.63;1.83;;;;;;;11.85;27.46;94973.81;5096945;28;20090;-47
2022/02/25 12:07:16;;;;;;;2.67;1.52;;;;;;;12.25;27.32;94965.09;5109411;28;20051;-47